createdAt,value
2023-10-05T00:01:46.447Z,69.79
2023-10-05T00:04:17.614Z,69.99
2023-10-05T00:06:44.191Z,70.31
2023-10-05T00:09:16.868Z,69.97
2023-10-05T00:11:43.455Z,70.91
2023-10-05T00:14:13.860Z,70.87
2023-10-05T00:16:45.251Z,70.22
2023-10-05T00:19:14.512Z,69.86
2023-10-05T00:21:52.743Z,69.57
2023-10-05T00:24:27.173Z,69.98
2023-10-05T00:26:57.286Z,70.47
2023-10-05T00:29:30.422Z,70.49
2023-10-05T00:32:01.399Z,70.63
2023-10-05T00:34:29.639Z,71.08
2023-10-05T00:37:03.746Z,71.13
2023-10-05T00:39:31.325Z,70.67
2023-10-05T00:42:18.477Z,70.55
2023-10-05T00:44:45.671Z,69.72
2023-10-05T00:47:15.336Z,69.66
2023-10-05T00:49:44.830Z,69.50
2023-10-05T00:52:14.351Z,69.28
2023-10-05T00:54:41.692Z,69.83
2023-10-05T00:57:14.879Z,70.52
2023-10-05T00:59:48.228Z,70.64
2023-10-05T01:02:21.929Z,70.53
2023-10-05T01:04:58.332Z,71.09
2023-10-05T01:07:26.399Z,70.92
2023-10-05T01:10:00.427Z,70.71
2023-10-05T01:12:42.890Z,70.93
2023-10-05T01:15:16.280Z,71.00
2023-10-05T01:17:43.280Z,70.44
2023-10-05T01:20:14.265Z,70.63
2023-10-05T01:22:41.148Z,70.49
2023-10-05T01:25:09.739Z,70.45
2023-10-05T01:27:41.473Z,70.40
2023-10-05T01:30:09.108Z,70.18
2023-10-05T01:32:36.876Z,70.96
2023-10-05T01:35:11.991Z,71.89
2023-10-05T01:37:45.073Z,71.13
2023-10-05T01:40:15.449Z,70.64
2023-10-05T01:42:49.143Z,70.80
2023-10-05T01:45:18.454Z,70.93
2023-10-05T01:47:45.633Z,70.67
2023-10-05T01:50:20.142Z,70.65
2023-10-05T01:52:50.841Z,70.83
2023-10-05T01:55:19.590Z,71.53
2023-10-05T01:57:46.292Z,71.58
2023-10-05T02:00:16.400Z,71.12
2023-10-05T02:02:44.246Z,71.16
2023-10-05T02:05:15.405Z,70.90
2023-10-05T02:07:41.946Z,70.54
2023-10-05T02:10:12.270Z,70.19
2023-10-05T02:12:40.195Z,70.00
2023-10-05T02:15:15.202Z,70.32
2023-10-05T02:17:44.071Z,70.02
2023-10-05T02:20:29.272Z,70.60
2023-10-05T02:22:56.023Z,70.93
2023-10-05T02:25:26.231Z,70.85
2023-10-05T02:27:53.569Z,69.80
2023-10-05T02:30:28.540Z,70.04
2023-10-05T02:32:56.755Z,69.91
2023-10-05T02:35:30.242Z,70.13
2023-10-05T02:38:00.573Z,70.91
2023-10-05T02:40:37.107Z,70.62
2023-10-05T02:43:10.641Z,70.51
2023-10-05T02:45:38.410Z,70.63
2023-10-05T02:48:07.712Z,70.34
2023-10-05T02:50:38.722Z,70.80
2023-10-05T02:53:09.725Z,71.17
2023-10-05T02:55:39.213Z,71.61
2023-10-05T02:58:06.001Z,72.09
2023-10-05T03:00:34.603Z,72.75
2023-10-05T03:03:05.075Z,72.06
2023-10-05T03:05:36.414Z,71.77
2023-10-05T03:08:03.322Z,71.53
2023-10-05T03:10:29.840Z,71.47
2023-10-05T03:12:56.595Z,71.82
2023-10-05T03:15:28.715Z,72.13
2023-10-05T03:17:58.480Z,72.22
2023-10-05T03:20:26.057Z,72.00
2023-10-05T03:22:56.062Z,72.13
2023-10-05T03:25:23.792Z,72.41
2023-10-05T03:27:50.337Z,72.61
2023-10-05T03:30:17.035Z,72.00
2023-10-05T03:32:43.548Z,72.07
2023-10-05T03:35:10.481Z,71.63
2023-10-05T03:37:41.833Z,71.12
2023-10-05T03:40:20.906Z,71.05
2023-10-05T03:42:47.860Z,71.64
2023-10-05T03:45:18.028Z,72.09
2023-10-05T03:47:44.641Z,71.76
2023-10-05T03:50:18.917Z,71.75
2023-10-05T03:52:46.175Z,71.46
2023-10-05T03:55:13.189Z,71.16
2023-10-05T03:57:43.439Z,71.95
2023-10-05T04:00:24.179Z,71.73
2023-10-05T04:02:54.115Z,71.34
2023-10-05T04:05:22.707Z,70.77
2023-10-05T04:07:50.237Z,70.55
2023-10-05T04:10:21.795Z,70.79
2023-10-05T04:12:50.817Z,70.88
2023-10-05T04:15:19.379Z,71.11
2023-10-05T04:17:46.731Z,71.28
2023-10-05T04:20:29.825Z,70.84
2023-10-05T04:22:57.516Z,70.77
2023-10-05T04:25:24.629Z,70.87
2023-10-05T04:27:51.881Z,70.61
2023-10-05T04:30:19.821Z,70.69
2023-10-05T04:32:46.964Z,71.05
2023-10-05T04:35:29.620Z,71.09
2023-10-05T04:37:58.603Z,71.64
2023-10-05T04:40:26.593Z,71.33
2023-10-05T04:42:53.748Z,71.49
2023-10-05T04:45:22.271Z,71.86
2023-10-05T04:47:50.228Z,71.74
2023-10-05T04:50:18.469Z,71.88
2023-10-05T04:52:52.406Z,71.74
2023-10-05T04:55:23.973Z,71.77
2023-10-05T04:57:57.349Z,71.39
2023-10-05T05:00:44.704Z,71.23
2023-10-05T05:03:11.478Z,71.10
2023-10-05T05:05:56.522Z,71.10
2023-10-05T05:08:24.005Z,71.52
2023-10-05T05:10:51.098Z,71.45
2023-10-05T05:13:18.868Z,71.63
2023-10-05T05:15:45.360Z,71.37
2023-10-05T05:18:16.393Z,71.37
2023-10-05T05:20:44.901Z,71.17
2023-10-05T05:23:14.100Z,71.23
2023-10-05T05:25:41.051Z,71.33
2023-10-05T05:28:08.831Z,71.70
2023-10-05T05:30:37.594Z,71.75
2023-10-05T05:33:13.246Z,71.59
2023-10-05T05:35:44.741Z,71.81
2023-10-05T05:38:12.063Z,71.85
2023-10-05T05:40:41.982Z,72.11
2023-10-05T05:43:10.071Z,72.21
2023-10-05T05:45:40.282Z,71.78
2023-10-05T05:48:10.770Z,71.89
2023-10-05T05:50:40.628Z,71.58
2023-10-05T05:53:12.235Z,71.77
2023-10-05T05:55:45.214Z,71.63
2023-10-05T05:58:16.008Z,70.80
2023-10-05T06:00:42.794Z,71.37
2023-10-05T06:03:12.504Z,71.61
2023-10-05T06:05:39.914Z,71.58
2023-10-05T06:08:10.050Z,70.79
2023-10-05T06:10:36.931Z,71.75
2023-10-05T06:13:06.816Z,71.14
2023-10-05T06:15:33.356Z,71.15
2023-10-05T06:18:03.131Z,71.17
2023-10-05T06:20:29.784Z,71.29
2023-10-05T06:22:56.418Z,71.34
2023-10-05T06:25:25.118Z,71.48
2023-10-05T06:27:52.619Z,71.58
2023-10-05T06:30:21.975Z,71.36
2023-10-05T06:32:48.864Z,71.07
2023-10-05T06:35:15.684Z,71.69
2023-10-05T06:37:45.791Z,69.01
2023-10-05T06:40:16.290Z,70.45
2023-10-05T06:42:44.806Z,71.03
2023-10-05T06:45:15.016Z,70.87
2023-10-05T06:47:42.456Z,71.35
2023-10-05T06:50:10.408Z,71.28
2023-10-05T06:52:44.411Z,70.56
2023-10-05T06:55:15.379Z,70.51
2023-10-05T06:57:45.725Z,72.01
2023-10-05T07:00:17.953Z,70.84
2023-10-05T07:02:46.164Z,71.55
2023-10-05T07:05:13.833Z,71.56
2023-10-05T07:07:41.995Z,70.12
2023-10-05T07:10:10.470Z,68.92
2023-10-05T07:12:43.037Z,68.63
2023-10-05T07:15:10.279Z,68.51
2023-10-05T07:17:36.937Z,69.01
2023-10-05T07:20:04.920Z,70.42
2023-10-05T07:22:31.556Z,68.79
2023-10-05T07:24:58.269Z,69.79
2023-10-05T07:27:24.719Z,70.22
2023-10-05T07:29:51.411Z,69.47
2023-10-05T07:32:17.989Z,69.23
2023-10-05T07:34:45.009Z,69.46
2023-10-05T07:37:11.985Z,70.41
2023-10-05T07:39:42.462Z,70.94
2023-10-05T07:42:09.961Z,69.32
2023-10-05T07:44:38.613Z,68.42
2023-10-05T07:47:06.395Z,68.62
2023-10-05T07:49:36.029Z,67.89
2023-10-05T07:52:04.888Z,69.05
2023-10-05T07:54:33.189Z,68.97
2023-10-05T07:57:01.985Z,68.16
2023-10-05T07:59:32.863Z,66.04
2023-10-05T08:01:59.563Z,66.20
2023-10-05T08:04:26.329Z,63.54
2023-10-05T08:06:55.265Z,61.66
2023-10-05T08:09:22.233Z,60.87
2023-10-05T08:11:51.393Z,60.37
2023-10-05T08:14:18.915Z,59.24
2023-10-05T08:16:46.966Z,58.31
2023-10-05T08:19:13.907Z,58.14
2023-10-05T08:21:42.233Z,58.07
2023-10-05T08:24:09.401Z,56.84
2023-10-05T08:26:36.163Z,56.44
2023-10-05T08:29:02.972Z,56.48
2023-10-05T08:31:29.805Z,55.65
2023-10-05T08:33:56.367Z,54.71
2023-10-05T08:36:23.628Z,54.93
2023-10-05T08:38:51.205Z,54.26
2023-10-05T08:41:36.585Z,54.21
2023-10-05T08:44:12.664Z,54.92
2023-10-05T08:46:44.060Z,54.96
2023-10-05T08:49:12.319Z,54.67
2023-10-05T08:51:43.041Z,54.11
2023-10-05T08:54:14.676Z,53.90
2023-10-05T08:56:48.965Z,53.26
2023-10-05T08:59:16.301Z,52.25
2023-10-05T09:01:44.148Z,50.78
2023-10-05T09:04:12.109Z,51.15
2023-10-05T09:06:58.067Z,50.43
2023-10-05T09:09:53.318Z,50.65
2023-10-05T09:12:34.132Z,51.03
2023-10-05T09:15:29.628Z,50.20
2023-10-05T09:17:57.842Z,50.82
2023-10-05T09:20:32.974Z,49.48
2023-10-05T09:23:15.059Z,50.61
2023-10-05T09:25:46.269Z,50.70
2023-10-05T09:28:15.045Z,50.04
2023-10-05T09:31:00.188Z,48.71
2023-10-05T09:33:29.059Z,48.90
2023-10-05T09:36:03.104Z,49.40
2023-10-05T09:38:34.089Z,49.34
2023-10-05T09:41:03.470Z,48.43
2023-10-05T09:43:38.346Z,47.28
2023-10-05T09:46:11.010Z,47.25
2023-10-05T09:48:39.818Z,45.91
2023-10-05T09:51:12.021Z,46.49
2023-10-05T09:53:39.758Z,46.79
2023-10-05T09:56:07.385Z,46.50
2023-10-05T09:58:35.300Z,45.54
2023-10-05T10:01:11.662Z,45.13
2023-10-05T10:03:46.416Z,45.06
2023-10-05T10:06:19.222Z,44.21
2023-10-05T10:08:55.446Z,44.10
2023-10-05T10:11:28.990Z,42.86
2023-10-05T10:14:16.440Z,41.71
2023-10-05T10:16:44.347Z,41.95
2023-10-05T10:19:26.983Z,42.20
2023-10-05T10:21:58.487Z,42.16
2023-10-05T10:24:29.675Z,41.34
2023-10-05T10:27:13.868Z,42.48
2023-10-05T10:29:52.283Z,40.77
2023-10-05T10:32:21.247Z,41.68
2023-10-05T10:35:27.967Z,41.70
2023-10-05T10:38:00.327Z,42.11
2023-10-05T10:40:28.523Z,42.58
2023-10-05T10:43:07.472Z,42.03
2023-10-05T10:45:42.174Z,41.85
2023-10-05T10:48:18.994Z,41.57
2023-10-05T10:50:47.264Z,41.23
2023-10-05T10:53:18.750Z,41.47
2023-10-05T10:55:53.194Z,41.44
2023-10-05T10:58:25.355Z,40.51
2023-10-05T11:00:55.980Z,40.50
2023-10-05T11:03:25.734Z,41.32
2023-10-05T11:05:53.523Z,40.72
2023-10-05T11:08:23.738Z,39.28
2023-10-05T11:10:59.947Z,39.90
2023-10-05T11:13:32.218Z,39.03
2023-10-05T11:16:04.176Z,38.23
2023-10-05T11:18:42.461Z,39.38
2023-10-05T11:21:15.693Z,40.38
2023-10-05T11:23:59.803Z,40.16
2023-10-05T11:26:44.593Z,40.53
2023-10-05T11:29:22.073Z,40.43
2023-10-05T11:32:24.353Z,40.75
2023-10-05T11:35:17.653Z,41.01
2023-10-05T11:37:27.893Z,41.50
2023-10-05T11:40:00.679Z,40.61
2023-10-05T11:42:28.983Z,40.85
2023-10-05T11:45:01.131Z,40.58
2023-10-05T11:47:36.906Z,39.62
2023-10-05T11:50:12.655Z,39.82
2023-10-05T11:52:39.774Z,40.64
2023-10-05T11:55:16.100Z,39.99
2023-10-05T11:57:42.731Z,39.35
2023-10-05T12:00:14.294Z,39.05
2023-10-05T12:02:41.994Z,39.35
2023-10-05T12:05:09.958Z,39.05
2023-10-05T12:07:39.369Z,38.96
2023-10-05T12:10:10.993Z,38.30
2023-10-05T12:12:42.437Z,38.64
2023-10-05T12:15:14.124Z,36.58
2023-10-05T12:17:41.493Z,35.84
2023-10-05T12:20:09.355Z,36.63
2023-10-05T12:22:38.490Z,36.84
2023-10-05T12:25:09.470Z,36.29
2023-10-05T12:27:36.760Z,37.49
2023-10-05T12:30:12.170Z,37.09
2023-10-05T12:32:40.210Z,36.20
2023-10-05T12:35:14.865Z,35.85
2023-10-05T12:37:43.369Z,36.89
2023-10-05T12:40:19.725Z,36.11
2023-10-05T12:42:58.653Z,35.74
2023-10-05T12:45:29.305Z,35.68
2023-10-05T12:47:56.794Z,36.62
2023-10-05T12:50:25.986Z,36.59
2023-10-05T12:52:53.480Z,37.30
2023-10-05T12:55:23.853Z,37.19
2023-10-05T12:57:54.781Z,38.46
2023-10-05T13:00:42.665Z,39.25
2023-10-05T13:03:13.307Z,39.22
2023-10-05T13:05:48.750Z,39.68
2023-10-05T13:08:17.830Z,40.65
2023-10-05T13:10:46.270Z,40.48
2023-10-05T13:13:19.191Z,40.62
2023-10-05T13:15:47.766Z,40.45
2023-10-05T13:18:20.443Z,41.25
2023-10-05T13:20:52.816Z,42.20
2023-10-05T13:23:20.423Z,41.90
2023-10-05T13:25:50.804Z,41.90
2023-10-05T13:28:28.129Z,42.85
2023-10-05T13:30:58.045Z,42.86
2023-10-05T13:33:35.454Z,42.22
2023-10-05T13:36:06.133Z,42.48
2023-10-05T13:38:34.920Z,42.59
2023-10-05T13:41:05.405Z,42.62
2023-10-05T13:43:33.559Z,42.59
2023-10-05T13:46:22.930Z,43.09
2023-10-05T13:48:55.636Z,42.90
2023-10-05T13:51:24.373Z,43.64
2023-10-05T13:53:58.453Z,43.42
2023-10-05T13:56:29.261Z,43.58
2023-10-05T13:59:07.367Z,43.89
2023-10-05T14:01:44.121Z,44.32
2023-10-05T14:04:16.345Z,43.48
2023-10-05T14:06:44.802Z,44.89
2023-10-05T14:09:12.286Z,44.65
2023-10-05T14:11:40.867Z,44.94
2023-10-05T14:14:09.087Z,44.82
2023-10-05T14:16:45.595Z,45.29
2023-10-05T14:19:12.499Z,44.28
2023-10-05T14:21:39.136Z,44.54
2023-10-05T14:24:06.540Z,44.77
2023-10-05T14:26:33.038Z,45.94
2023-10-05T14:28:59.660Z,46.14
2023-10-05T14:31:26.334Z,46.40
2023-10-05T14:33:54.772Z,45.91
2023-10-05T14:36:22.157Z,46.08
2023-10-05T14:38:51.614Z,46.71
2023-10-05T14:41:20.342Z,47.25
2023-10-05T14:43:47.088Z,47.01
2023-10-05T14:46:22.588Z,47.24
2023-10-05T14:48:49.394Z,47.06
2023-10-05T14:51:18.801Z,47.64
2023-10-05T14:53:45.768Z,48.08
2023-10-05T14:56:13.126Z,47.76
2023-10-05T14:58:40.312Z,46.84
2023-10-05T15:01:11.794Z,46.97
2023-10-05T15:03:40.065Z,46.22
2023-10-05T15:13:22.086Z,48.04
2023-10-05T15:15:49.997Z,46.70
2023-10-05T15:18:18.156Z,46.48
2023-10-05T15:20:44.747Z,46.81
2023-10-05T15:23:11.248Z,45.83
2023-10-05T15:25:41.470Z,46.71
2023-10-05T15:28:13.309Z,46.90
2023-10-05T15:30:40.233Z,48.13
2023-10-05T15:33:06.766Z,47.83
2023-10-05T15:35:34.812Z,48.30
2023-10-05T15:38:01.629Z,47.49
2023-10-05T15:40:32.414Z,48.04
2023-10-05T15:43:02.472Z,48.13
2023-10-05T15:45:29.112Z,48.93
2023-10-05T15:47:56.898Z,48.93
2023-10-05T15:50:25.459Z,49.81
2023-10-05T15:52:56.994Z,50.15
2023-10-05T15:55:25.081Z,49.51
2023-10-05T15:57:52.673Z,50.13
2023-10-05T16:00:23.026Z,50.92
2023-10-05T16:02:58.734Z,51.36
2023-10-05T16:05:26.941Z,51.51
2023-10-05T16:07:56.410Z,51.90
2023-10-05T16:10:23.306Z,52.42
2023-10-05T16:12:49.956Z,52.57
2023-10-05T16:15:18.354Z,52.38
2023-10-05T16:17:49.280Z,52.29
2023-10-05T16:20:27.365Z,51.98
2023-10-05T16:22:59.398Z,52.20
2023-10-05T16:25:28.173Z,51.81
2023-10-05T16:27:55.701Z,51.95
2023-10-05T16:30:23.119Z,52.31
2023-10-05T16:32:52.258Z,52.45
2023-10-05T16:35:19.453Z,52.55
2023-10-05T16:37:46.619Z,53.16
2023-10-05T16:40:14.605Z,53.77
2023-10-05T16:42:46.539Z,53.93
2023-10-05T16:45:14.756Z,54.01
2023-10-05T16:47:45.077Z,54.41
2023-10-05T16:50:16.353Z,54.85
2023-10-05T16:52:44.919Z,55.59
2023-10-05T16:55:15.291Z,55.17
2023-10-05T16:57:45.150Z,55.28
2023-10-05T17:00:24.002Z,55.47
2023-10-05T17:02:52.488Z,55.51
2023-10-05T17:05:20.064Z,56.01
2023-10-05T17:07:48.106Z,56.27
2023-10-05T17:10:15.532Z,56.81
2023-10-05T17:12:42.578Z,57.31
2023-10-05T17:15:09.913Z,57.46
2023-10-05T17:17:36.758Z,57.84
2023-10-05T17:20:05.206Z,57.72
2023-10-05T17:22:32.023Z,57.96
2023-10-05T17:24:59.224Z,58.46
2023-10-05T17:27:30.675Z,58.63
2023-10-05T17:29:58.621Z,58.94
2023-10-05T17:32:26.116Z,59.26
2023-10-05T17:34:53.718Z,59.35
2023-10-05T17:37:21.436Z,59.55
2023-10-05T17:39:48.256Z,59.79
2023-10-05T17:42:14.806Z,59.63
2023-10-05T17:44:42.494Z,60.23
2023-10-05T17:47:12.321Z,60.06
2023-10-05T17:49:42.282Z,60.06
2023-10-05T17:52:09.044Z,60.60
2023-10-05T17:54:35.784Z,60.99
2023-10-05T17:57:04.472Z,60.92
2023-10-05T17:59:31.754Z,61.17
2023-10-05T18:01:58.428Z,61.24
2023-10-05T18:04:26.467Z,61.54
2023-10-05T18:06:53.056Z,61.73
2023-10-05T18:09:19.579Z,62.44
2023-10-05T18:11:49.708Z,62.45
2023-10-05T18:14:16.832Z,62.93
2023-10-05T18:16:47.719Z,62.99
2023-10-05T18:19:15.149Z,62.99
2023-10-05T18:21:41.986Z,63.47
2023-10-05T18:24:11.545Z,63.58
2023-10-05T18:26:38.051Z,63.91
2023-10-05T18:29:04.705Z,63.83
2023-10-05T18:31:33.127Z,63.92
2023-10-05T18:33:59.777Z,64.29
2023-10-05T18:36:26.334Z,64.24
2023-10-05T18:38:52.896Z,64.26
2023-10-05T18:41:21.256Z,64.43
2023-10-05T18:43:51.541Z,64.49
2023-10-05T18:46:19.334Z,64.68
2023-10-05T18:48:46.128Z,64.49
2023-10-05T18:51:12.702Z,64.70
2023-10-05T18:53:40.810Z,64.96
2023-10-05T18:56:08.664Z,65.32
2023-10-05T18:58:36.216Z,65.41
2023-10-05T19:01:03.072Z,65.12
2023-10-05T19:03:33.895Z,65.19
2023-10-05T19:06:00.465Z,65.12
2023-10-05T19:08:27.386Z,65.36
2023-10-05T19:10:54.459Z,65.20
2023-10-05T19:13:21.500Z,65.55
2023-10-05T19:15:49.026Z,65.29
2023-10-05T19:18:15.535Z,65.54
2023-10-05T19:20:42.101Z,65.28
2023-10-05T19:23:10.377Z,65.67
2023-10-05T19:25:40.483Z,65.50
2023-10-05T19:28:10.183Z,65.50
2023-10-05T19:30:38.154Z,65.59
2023-10-05T19:33:05.091Z,65.60
2023-10-05T19:35:32.681Z,65.48
2023-10-05T19:38:00.863Z,65.61
2023-10-05T19:40:27.716Z,65.61
2023-10-05T19:42:56.012Z,65.65
2023-10-05T19:45:23.127Z,65.84
2023-10-05T19:47:49.854Z,66.07
2023-10-05T19:50:16.618Z,65.64
2023-10-05T19:52:43.136Z,66.21
2023-10-05T19:55:15.045Z,65.91
2023-10-05T19:57:42.158Z,65.97
2023-10-05T20:00:12.819Z,66.19
2023-10-05T20:02:43.019Z,66.33
2023-10-05T20:05:10.019Z,66.33
2023-10-05T20:07:36.703Z,66.66
2023-10-05T20:10:05.951Z,66.37
2023-10-05T20:12:33.734Z,66.58
2023-10-05T20:15:00.992Z,66.56
2023-10-05T20:17:27.762Z,66.90
2023-10-05T20:19:54.657Z,66.68
2023-10-05T20:22:21.256Z,67.06
2023-10-05T20:24:47.823Z,67.04
2023-10-05T20:27:16.936Z,66.90
2023-10-05T20:29:44.543Z,67.06
2023-10-05T20:32:14.960Z,67.24
2023-10-05T20:34:44.108Z,67.30
2023-10-05T20:37:11.015Z,67.61
2023-10-05T20:39:37.723Z,67.85
2023-10-05T20:42:05.131Z,67.98
2023-10-05T20:44:31.843Z,68.20
2023-10-05T20:47:01.030Z,68.22
2023-10-05T20:49:34.870Z,68.40
2023-10-05T20:52:01.898Z,68.41
2023-10-05T20:54:28.440Z,68.45
2023-10-05T20:56:55.079Z,69.12
2023-10-05T20:59:27.455Z,68.86
2023-10-05T21:01:54.176Z,68.84
2023-10-05T21:04:20.726Z,68.66
2023-10-05T21:06:47.288Z,68.85
2023-10-05T21:09:14.620Z,69.10
2023-10-05T21:11:41.196Z,69.03
2023-10-05T21:14:07.943Z,69.03
2023-10-05T21:16:37.320Z,69.32
2023-10-05T21:19:04.379Z,69.40
2023-10-05T21:21:30.891Z,69.64
2023-10-05T21:23:57.369Z,69.61
2023-10-05T21:26:24.201Z,70.14
2023-10-05T21:28:50.871Z,69.80
2023-10-05T21:31:17.391Z,69.25
2023-10-05T21:33:44.268Z,69.34
2023-10-05T21:36:13.341Z,69.85
2023-10-05T21:38:41.263Z,69.27
2023-10-05T21:41:07.911Z,69.35
2023-10-05T21:43:34.480Z,69.73
2023-10-05T21:46:01.192Z,69.49
2023-10-05T21:48:27.739Z,69.54
2023-10-05T21:50:54.548Z,69.22
2023-10-05T21:53:23.419Z,68.89
2023-10-05T21:55:49.971Z,68.79
2023-10-05T21:58:16.491Z,68.63
2023-10-05T22:00:42.951Z,68.69
2023-10-05T22:03:10.449Z,69.67
2023-10-05T22:05:38.066Z,70.67
2023-10-05T22:08:08.561Z,70.05
2023-10-05T22:10:40.139Z,70.40
2023-10-05T22:13:10.672Z,70.32
2023-10-05T22:15:38.251Z,70.20
2023-10-05T22:18:08.016Z,70.10
2023-10-05T22:20:34.793Z,69.50
2023-10-05T22:23:05.126Z,69.75
2023-10-05T22:25:36.807Z,69.39
2023-10-05T22:28:04.781Z,69.56
2023-10-05T22:30:31.484Z,70.46
2023-10-05T22:32:58.167Z,70.01
2023-10-05T22:35:24.694Z,69.88
2023-10-05T22:37:51.392Z,70.08
2023-10-05T22:40:18.801Z,70.80
2023-10-05T22:42:46.333Z,70.84
2023-10-05T22:45:12.988Z,70.75
2023-10-05T22:47:39.498Z,70.42
2023-10-05T22:50:06.321Z,70.64
2023-10-05T22:52:32.953Z,70.44
2023-10-05T22:55:00.076Z,70.11
2023-10-05T22:57:27.228Z,70.16
2023-10-05T22:59:53.747Z,70.85
2023-10-05T23:02:20.444Z,71.53
2023-10-05T23:04:47.732Z,71.26
2023-10-05T23:07:14.391Z,70.67
2023-10-05T23:09:41.259Z,70.79
2023-10-05T23:12:12.480Z,71.04
2023-10-05T23:14:40.129Z,70.95
2023-10-05T23:17:10.240Z,70.92
2023-10-05T23:19:37.494Z,71.17
2023-10-05T23:22:05.887Z,71.35
2023-10-05T23:24:35.379Z,70.99
2023-10-05T23:27:05.223Z,70.36
2023-10-05T23:29:32.928Z,70.49
2023-10-05T23:32:00.316Z,71.02
2023-10-05T23:34:29.445Z,70.93
2023-10-05T23:36:59.612Z,71.38
2023-10-05T23:39:26.253Z,71.32
2023-10-05T23:41:55.850Z,71.55
2023-10-05T23:44:24.135Z,71.37
2023-10-05T23:47:21.274Z,71.78
2023-10-05T23:49:48.990Z,71.54
2023-10-05T23:52:16.335Z,71.66
2023-10-05T23:54:43.388Z,71.61
2023-10-05T23:57:21.503Z,71.61
2023-10-05T23:59:48.927Z,71.31
